sensor_id;sensor_type;location;lat;lon;timestamp;pressure;altitude;pressure_sealevel;temperature;humidity
21644;BME280;10983;51.982;9.226;2022-07-23T00:00:29;100558.16;;;14.00;100.00
21644;BME280;10983;51.982;9.226;2022-07-23T00:03:06;100572.69;;;13.93;100.00
21644;BME280;10983;51.982;9.226;2022-07-23T00:05:33;100574.81;;;13.91;100.00
21644;BME280;10983;51.982;9.226;2022-07-23T00:08:03;100581.91;;;13.85;100.00
21644;BME280;10983;51.982;9.226;2022-07-23T00:10:37;100583.25;;;13.71;100.00
21644;BME280;10983;51.982;9.226;2022-07-23T00:13:05;100589.94;;;13.85;100.00
21644;BME280;10983;51.982;9.226;2022-07-23T00:15:32;100596.22;;;13.91;100.00
21644;BME280;10983;51.982;9.226;2022-07-23T00:18:00;100590.28;;;13.89;100.00
21644;BME280;10983;51.982;9.226;2022-07-23T00:20:29;100593.44;;;13.86;100.00
21644;BME280;10983;51.982;9.226;2022-07-23T00:22:57;100594.00;;;13.88;100.00
21644;BME280;10983;51.982;9.226;2022-07-23T00:25:26;100591.88;;;13.73;100.00
21644;BME280;10983;51.982;9.226;2022-07-23T00:27:56;100597.34;;;13.67;100.00
21644;BME280;10983;51.982;9.226;2022-07-23T00:30:24;100587.75;;;13.82;100.00
21644;BME280;10983;51.982;9.226;2022-07-23T00:32:53;100590.28;;;13.89;100.00
21644;BME280;10983;51.982;9.226;2022-07-23T00:35:23;100581.22;;;13.90;100.00
21644;BME280;10983;51.982;9.226;2022-07-23T00:37:52;100587.22;;;13.97;100.00
21644;BME280;10983;51.982;9.226;2022-07-23T00:40:20;100592.66;;;14.02;100.00
21644;BME280;10983;51.982;9.226;2022-07-23T00:42:48;100593.47;;;14.02;100.00
21644;BME280;10983;51.982;9.226;2022-07-23T00:45:15;100614.50;;;13.99;100.00
21644;BME280;10983;51.982;9.226;2022-07-23T00:47:43;100617.06;;;14.05;100.00
21644;BME280;10983;51.982;9.226;2022-07-23T00:50:11;100612.75;;;14.15;100.00
21644;BME280;10983;51.982;9.226;2022-07-23T00:52:39;100607.59;;;14.25;100.00
21644;BME280;10983;51.982;9.226;2022-07-23T00:55:10;100599.56;;;14.25;100.00
21644;BME280;10983;51.982;9.226;2022-07-23T00:57:39;100608.53;;;14.19;100.00
21644;BME280;10983;51.982;9.226;2022-07-23T01:00:09;100607.88;;;14.29;100.00
21644;BME280;10983;51.982;9.226;2022-07-23T01:02:37;100612.28;;;14.35;100.00
21644;BME280;10983;51.982;9.226;2022-07-23T01:05:06;100607.41;;;14.32;100.00
21644;BME280;10983;51.982;9.226;2022-07-23T01:07:34;100603.59;;;14.28;100.00
21644;BME280;10983;51.982;9.226;2022-07-23T01:10:03;100595.50;;;14.23;100.00
21644;BME280;10983;51.982;9.226;2022-07-23T01:12:33;100605.28;;;14.17;100.00
21644;BME280;10983;51.982;9.226;2022-07-23T01:15:00;100597.03;;;14.19;100.00
21644;BME280;10983;51.982;9.226;2022-07-23T01:17:28;100606.09;;;14.18;100.00
21644;BME280;10983;51.982;9.226;2022-07-23T01:19:55;100598.72;;;14.08;100.00
21644;BME280;10983;51.982;9.226;2022-07-23T01:24:52;100588.38;;;14.01;100.00
21644;BME280;10983;51.982;9.226;2022-07-23T01:27:20;100593.22;;;14.03;100.00
21644;BME280;10983;51.982;9.226;2022-07-23T01:29:47;100597.66;;;14.09;100.00
21644;BME280;10983;51.982;9.226;2022-07-23T01:32:15;100597.59;;;14.21;100.00
21644;BME280;10983;51.982;9.226;2022-07-23T01:34:42;100603.94;;;14.31;100.00
21644;BME280;10983;51.982;9.226;2022-07-23T01:37:10;100617.41;;;14.53;100.00
21644;BME280;10983;51.982;9.226;2022-07-23T01:39:38;100625.13;;;14.65;100.00
21644;BME280;10983;51.982;9.226;2022-07-23T01:42:07;100634.84;;;14.71;100.00
21644;BME280;10983;51.982;9.226;2022-07-23T01:44:35;100613.53;;;14.76;100.00
21644;BME280;10983;51.982;9.226;2022-07-23T01:47:02;100631.53;;;14.97;100.00
21644;BME280;10983;51.982;9.226;2022-07-23T01:49:30;100625.72;;;15.05;100.00
21644;BME280;10983;51.982;9.226;2022-07-23T01:51:58;100626.31;;;15.07;100.00
21644;BME280;10983;51.982;9.226;2022-07-23T01:54:31;100623.75;;;15.17;100.00
21644;BME280;10983;51.982;9.226;2022-07-23T01:56:59;100628.97;;;15.23;100.00
21644;BME280;10983;51.982;9.226;2022-07-23T01:59:28;100631.66;;;15.23;100.00
21644;BME280;10983;51.982;9.226;2022-07-23T02:01:56;100631.16;;;15.26;100.00
21644;BME280;10983;51.982;9.226;2022-07-23T02:04:25;100625.88;;;15.31;100.00
21644;BME280;10983;51.982;9.226;2022-07-23T02:06:53;100634.03;;;15.20;100.00
21644;BME280;10983;51.982;9.226;2022-07-23T02:09:20;100642.38;;;15.23;100.00
21644;BME280;10983;51.982;9.226;2022-07-23T02:11:48;100639.69;;;15.23;100.00
21644;BME280;10983;51.982;9.226;2022-07-23T02:14:16;100644.81;;;15.25;100.00
21644;BME280;10983;51.982;9.226;2022-07-23T02:16:45;100635.31;;;15.17;100.00
21644;BME280;10983;51.982;9.226;2022-07-23T02:19:12;100624.75;;;15.27;100.00
21644;BME280;10983;51.982;9.226;2022-07-23T02:21:40;100605.06;;;15.38;100.00
21644;BME280;10983;51.982;9.226;2022-07-23T02:24:08;100601.34;;;15.39;100.00
21644;BME280;10983;51.982;9.226;2022-07-23T02:26:35;100604.72;;;15.51;100.00
21644;BME280;10983;51.982;9.226;2022-07-23T02:29:04;100582.28;;;15.57;100.00
21644;BME280;10983;51.982;9.226;2022-07-23T02:31:31;100585.25;;;15.61;100.00
21644;BME280;10983;51.982;9.226;2022-07-23T02:34:01;100577.47;;;15.38;100.00
21644;BME280;10983;51.982;9.226;2022-07-23T02:36:28;100577.47;;;15.38;100.00
21644;BME280;10983;51.982;9.226;2022-07-23T02:38:56;100582.47;;;15.29;100.00
21644;BME280;10983;51.982;9.226;2022-07-23T02:41:24;100569.50;;;15.21;100.00
21644;BME280;10983;51.982;9.226;2022-07-23T02:43:52;100546.84;;;15.34;100.00
21644;BME280;10983;51.982;9.226;2022-07-23T02:46:19;100555.50;;;15.41;100.00
21644;BME280;10983;51.982;9.226;2022-07-23T02:48:47;100558.38;;;15.34;100.00
21644;BME280;10983;51.982;9.226;2022-07-23T02:51:16;100556.63;;;15.23;100.00
21644;BME280;10983;51.982;9.226;2022-07-23T02:53:44;100562.63;;;15.14;100.00
21644;BME280;10983;51.982;9.226;2022-07-23T02:56:11;100573.69;;;15.17;100.00
21644;BME280;10983;51.982;9.226;2022-07-23T02:58:39;100543.09;;;15.14;100.00
21644;BME280;10983;51.982;9.226;2022-07-23T03:01:06;100566.63;;;15.28;100.00
21644;BME280;10983;51.982;9.226;2022-07-23T03:03:34;100586.38;;;15.22;100.00
21644;BME280;10983;51.982;9.226;2022-07-23T03:06:02;100563.44;;;15.31;100.00
21644;BME280;10983;51.982;9.226;2022-07-23T03:08:31;100529.16;;;15.33;100.00
21644;BME280;10983;51.982;9.226;2022-07-23T03:11:00;100544.34;;;15.27;100.00
21644;BME280;10983;51.982;9.226;2022-07-23T03:13:28;100545.13;;;15.23;100.00
21644;BME280;10983;51.982;9.226;2022-07-23T03:15:57;100553.66;;;15.20;100.00
21644;BME280;10983;51.982;9.226;2022-07-23T03:18:25;100557.34;;;15.19;100.00
21644;BME280;10983;51.982;9.226;2022-07-23T03:20:52;100549.50;;;15.13;100.00
21644;BME280;10983;51.982;9.226;2022-07-23T03:23:19;100535.41;;;15.01;100.00
21644;BME280;10983;51.982;9.226;2022-07-23T03:25:48;100532.19;;;14.99;100.00
21644;BME280;10983;51.982;9.226;2022-07-23T03:28:20;100527.16;;;14.86;100.00
21644;BME280;10983;51.982;9.226;2022-07-23T03:30:48;100538.25;;;14.94;100.00
21644;BME280;10983;51.982;9.226;2022-07-23T03:33:16;100546.38;;;14.99;100.00
21644;BME280;10983;51.982;9.226;2022-07-23T03:35:45;100542.81;;;14.94;100.00
21644;BME280;10983;51.982;9.226;2022-07-23T03:38:14;100547.38;;;14.93;100.00
21644;BME280;10983;51.982;9.226;2022-07-23T03:40:43;100535.28;;;14.91;100.00
21644;BME280;10983;51.982;9.226;2022-07-23T03:43:12;100546.53;;;14.93;100.00
21644;BME280;10983;51.982;9.226;2022-07-23T03:45:39;100539.50;;;14.87;100.00
21644;BME280;10983;51.982;9.226;2022-07-23T03:48:07;100557.00;;;14.94;100.00
21644;BME280;10983;51.982;9.226;2022-07-23T03:50:34;100554.03;;;14.91;100.00
21644;BME280;10983;51.982;9.226;2022-07-23T03:53:03;100564.41;;;14.87;100.00
21644;BME280;10983;51.982;9.226;2022-07-23T03:55:31;100570.81;;;14.86;100.00
21644;BME280;10983;51.982;9.226;2022-07-23T03:57:58;100573.19;;;14.83;100.00
21644;BME280;10983;51.982;9.226;2022-07-23T04:00:27;100568.25;;;14.75;100.00
21644;BME280;10983;51.982;9.226;2022-07-23T04:02:55;100574.66;;;14.74;100.00
21644;BME280;10983;51.982;9.226;2022-07-23T04:05:23;100574.81;;;14.67;100.00
21644;BME280;10983;51.982;9.226;2022-07-23T04:07:50;100571.75;;;14.59;100.00
21644;BME280;10983;51.982;9.226;2022-07-23T04:10:18;100579.59;;;14.49;100.00
21644;BME280;10983;51.982;9.226;2022-07-23T04:12:45;100585.94;;;14.43;100.00
21644;BME280;10983;51.982;9.226;2022-07-23T04:15:13;100575.88;;;14.50;100.00
21644;BME280;10983;51.982;9.226;2022-07-23T04:17:42;100575.78;;;14.45;100.00
21644;BME280;10983;51.982;9.226;2022-07-23T04:20:11;100581.22;;;14.34;100.00
21644;BME280;10983;51.982;9.226;2022-07-23T04:22:39;100580.50;;;14.38;100.00
21644;BME280;10983;51.982;9.226;2022-07-23T04:25:07;100577.66;;;14.45;100.00
21644;BME280;10983;51.982;9.226;2022-07-23T04:27:34;100578.56;;;14.34;100.00
21644;BME280;10983;51.982;9.226;2022-07-23T04:30:02;100583.91;;;14.17;100.00
21644;BME280;10983;51.982;9.226;2022-07-23T04:32:30;100568.91;;;14.16;100.00
21644;BME280;10983;51.982;9.226;2022-07-23T04:34:59;100578.72;;;14.27;100.00
21644;BME280;10983;51.982;9.226;2022-07-23T04:37:26;100585.44;;;14.30;100.00
21644;BME280;10983;51.982;9.226;2022-07-23T04:39:54;100580.00;;;14.25;100.00
21644;BME280;10983;51.982;9.226;2022-07-23T04:42:22;100590.84;;;14.18;100.00
21644;BME280;10983;51.982;9.226;2022-07-23T04:44:49;100589.50;;;14.16;100.00
21644;BME280;10983;51.982;9.226;2022-07-23T04:47:17;100582.81;;;14.18;100.00
21644;BME280;10983;51.982;9.226;2022-07-23T04:49:48;100597.13;;;14.40;100.00
21644;BME280;10983;51.982;9.226;2022-07-23T04:52:17;100585.78;;;14.50;100.00
21644;BME280;10983;51.982;9.226;2022-07-23T04:54:44;100588.59;;;14.59;100.00
21644;BME280;10983;51.982;9.226;2022-07-23T04:57:12;100593.31;;;14.69;100.00
21644;BME280;10983;51.982;9.226;2022-07-23T04:59:39;100597.22;;;14.78;100.00
21644;BME280;10983;51.982;9.226;2022-07-23T05:02:07;100603.13;;;14.96;100.00
21644;BME280;10983;51.982;9.226;2022-07-23T05:04:34;100608.09;;;15.09;100.00
21644;BME280;10983;51.982;9.226;2022-07-23T05:07:02;100610.06;;;15.14;100.00
21644;BME280;10983;51.982;9.226;2022-07-23T05:09:31;100610.78;;;15.09;100.00
21644;BME280;10983;51.982;9.226;2022-07-23T05:12:00;100610.31;;;15.12;100.00
21644;BME280;10983;51.982;9.226;2022-07-23T05:14:28;100609.72;;;15.26;100.00
21644;BME280;10983;51.982;9.226;2022-07-23T05:16:55;100607.88;;;15.27;100.00
21644;BME280;10983;51.982;9.226;2022-07-23T05:19:22;100600.97;;;15.31;100.00
21644;BME280;10983;51.982;9.226;2022-07-23T05:21:50;100611.63;;;15.47;100.00
21644;BME280;10983;51.982;9.226;2022-07-23T05:24:18;100618.09;;;15.30;100.00
21644;BME280;10983;51.982;9.226;2022-07-23T05:26:47;100603.94;;;15.34;100.00
21644;BME280;10983;51.982;9.226;2022-07-23T05:29:15;100605.13;;;15.43;100.00
21644;BME280;10983;51.982;9.226;2022-07-23T05:31:43;100601.03;;;15.57;100.00
21644;BME280;10983;51.982;9.226;2022-07-23T05:34:10;100602.28;;;15.71;100.00
21644;BME280;10983;51.982;9.226;2022-07-23T05:36:43;100599.47;;;15.82;100.00
21644;BME280;10983;51.982;9.226;2022-07-23T05:39:10;100593.56;;;16.07;100.00
21644;BME280;10983;51.982;9.226;2022-07-23T05:41:38;100584.13;;;16.04;100.00
21644;BME280;10983;51.982;9.226;2022-07-23T05:44:07;100596.63;;;16.20;100.00
21644;BME280;10983;51.982;9.226;2022-07-23T05:46:34;100602.25;;;16.19;100.00
21644;BME280;10983;51.982;9.226;2022-07-23T05:49:02;100606.53;;;16.20;100.00
21644;BME280;10983;51.982;9.226;2022-07-23T05:51:30;100595.44;;;16.32;100.00
21644;BME280;10983;51.982;9.226;2022-07-23T05:53:57;100605.19;;;16.75;100.00
21644;BME280;10983;51.982;9.226;2022-07-23T05:56:26;100606.09;;;16.90;100.00
21644;BME280;10983;51.982;9.226;2022-07-23T05:58:53;100610.56;;;16.75;100.00
21644;BME280;10983;51.982;9.226;2022-07-23T06:01:22;100605.03;;;16.91;100.00
21644;BME280;10983;51.982;9.226;2022-07-23T06:03:50;100612.31;;;16.95;100.00
21644;BME280;10983;51.982;9.226;2022-07-23T06:06:17;100608.66;;;17.06;100.00
21644;BME280;10983;51.982;9.226;2022-07-23T06:08:45;100610.34;;;17.22;100.00
21644;BME280;10983;51.982;9.226;2022-07-23T06:11:12;100617.94;;;17.25;100.00
21644;BME280;10983;51.982;9.226;2022-07-23T06:13:40;100607.03;;;17.46;100.00
21644;BME280;10983;51.982;9.226;2022-07-23T06:16:07;100621.03;;;17.53;100.00
21644;BME280;10983;51.982;9.226;2022-07-23T06:18:36;100636.66;;;17.56;100.00
21644;BME280;10983;51.982;9.226;2022-07-23T06:21:04;100642.41;;;17.85;100.00
21644;BME280;10983;51.982;9.226;2022-07-23T06:23:52;100660.75;;;17.98;100.00
21644;BME280;10983;51.982;9.226;2022-07-23T06:26:19;100672.13;;;18.09;100.00
21644;BME280;10983;51.982;9.226;2022-07-23T06:28:46;100689.78;;;18.66;100.00
21644;BME280;10983;51.982;9.226;2022-07-23T06:31:14;100718.38;;;18.97;100.00
21644;BME280;10983;51.982;9.226;2022-07-23T06:33:43;100756.38;;;18.96;100.00
21644;BME280;10983;51.982;9.226;2022-07-23T06:36:10;100804.34;;;18.89;100.00
21644;BME280;10983;51.982;9.226;2022-07-23T06:38:38;100831.56;;;18.82;100.00
21644;BME280;10983;51.982;9.226;2022-07-23T06:41:05;100864.56;;;19.14;100.00
21644;BME280;10983;51.982;9.226;2022-07-23T06:43:33;100890.53;;;19.60;100.00
21644;BME280;10983;51.982;9.226;2022-07-23T06:46:00;100963.66;;;19.53;100.00
21644;BME280;10983;51.982;9.226;2022-07-23T06:48:28;100988.72;;;19.49;100.00
21644;BME280;10983;51.982;9.226;2022-07-23T06:50:57;101018.88;;;19.26;100.00
21644;BME280;10983;51.982;9.226;2022-07-23T06:53:24;101034.38;;;19.04;100.00
21644;BME280;10983;51.982;9.226;2022-07-23T06:55:52;101028.47;;;18.61;100.00
21644;BME280;10983;51.982;9.226;2022-07-23T06:58:19;101062.97;;;18.33;100.00
21644;BME280;10983;51.982;9.226;2022-07-23T07:00:47;101025.75;;;18.25;100.00
21644;BME280;10983;51.982;9.226;2022-07-23T07:03:16;101010.94;;;18.22;100.00
21644;BME280;10983;51.982;9.226;2022-07-23T07:05:44;101004.47;;;18.23;100.00
21644;BME280;10983;51.982;9.226;2022-07-23T07:08:13;101009.59;;;18.25;100.00
21644;BME280;10983;51.982;9.226;2022-07-23T07:10:41;101022.16;;;18.46;100.00
21644;BME280;10983;51.982;9.226;2022-07-23T07:13:08;101006.16;;;18.70;100.00
21644;BME280;10983;51.982;9.226;2022-07-23T07:15:36;101013.28;;;18.86;100.00
21644;BME280;10983;51.982;9.226;2022-07-23T07:18:03;101034.75;;;18.76;100.00
21644;BME280;10983;51.982;9.226;2022-07-23T07:20:31;101054.25;;;18.88;100.00
21644;BME280;10983;51.982;9.226;2022-07-23T07:22:58;101087.38;;;18.84;100.00
21644;BME280;10983;51.982;9.226;2022-07-23T07:25:27;101110.06;;;18.88;100.00
21644;BME280;10983;51.982;9.226;2022-07-23T07:27:56;101117.47;;;19.07;100.00
21644;BME280;10983;51.982;9.226;2022-07-23T07:30:24;101102.53;;;19.31;100.00
21644;BME280;10983;51.982;9.226;2022-07-23T07:32:59;101126.00;;;19.30;100.00
21644;BME280;10983;51.982;9.226;2022-07-23T07:35:26;101090.31;;;19.84;100.00
21644;BME280;10983;51.982;9.226;2022-07-23T07:37:54;101121.44;;;20.02;100.00
21644;BME280;10983;51.982;9.226;2022-07-23T07:40:22;101154.59;;;19.82;100.00
21644;BME280;10983;51.982;9.226;2022-07-23T07:43:00;101175.06;;;19.73;100.00
21644;BME280;10983;51.982;9.226;2022-07-23T07:45:28;101174.75;;;20.26;100.00
21644;BME280;10983;51.982;9.226;2022-07-23T07:47:56;101189.25;;;20.00;100.00
21644;BME280;10983;51.982;9.226;2022-07-23T07:50:23;101234.00;;;19.45;100.00
21644;BME280;10983;51.982;9.226;2022-07-23T07:52:51;101224.31;;;19.49;100.00
21644;BME280;10983;51.982;9.226;2022-07-23T07:55:19;101218.63;;;19.41;100.00
21644;BME280;10983;51.982;9.226;2022-07-23T07:57:46;101214.94;;;20.08;100.00
21644;BME280;10983;51.982;9.226;2022-07-23T08:00:16;101262.38;;;20.60;100.00
21644;BME280;10983;51.982;9.226;2022-07-23T08:02:47;101294.97;;;20.24;100.00
21644;BME280;10983;51.982;9.226;2022-07-23T08:05:18;101308.75;;;20.22;100.00
21644;BME280;10983;51.982;9.226;2022-07-23T08:07:53;101305.38;;;20.00;100.00
21644;BME280;10983;51.982;9.226;2022-07-23T08:10:20;101298.53;;;20.39;100.00
21644;BME280;10983;51.982;9.226;2022-07-23T08:12:49;101312.25;;;20.84;100.00
21644;BME280;10983;51.982;9.226;2022-07-23T08:15:20;101336.38;;;21.79;100.00
21644;BME280;10983;51.982;9.226;2022-07-23T08:17:49;101379.94;;;22.32;100.00
21644;BME280;10983;51.982;9.226;2022-07-23T08:20:18;101365.34;;;21.94;100.00
21644;BME280;10983;51.982;9.226;2022-07-23T08:22:49;101275.19;;;20.99;100.00
21644;BME280;10983;51.982;9.226;2022-07-23T08:25:20;101268.97;;;21.13;100.00
21644;BME280;10983;51.982;9.226;2022-07-23T08:27:48;101251.66;;;21.34;100.00
21644;BME280;10983;51.982;9.226;2022-07-23T08:30:16;101230.13;;;22.02;100.00
21644;BME280;10983;51.982;9.226;2022-07-23T08:32:50;101176.28;;;22.44;100.00
21644;BME280;10983;51.982;9.226;2022-07-23T08:35:20;101078.84;;;22.52;100.00
21644;BME280;10983;51.982;9.226;2022-07-23T08:37:48;101022.31;;;21.59;100.00
21644;BME280;10983;51.982;9.226;2022-07-23T08:40:16;101002.47;;;21.16;100.00
21644;BME280;10983;51.982;9.226;2022-07-23T08:42:45;101006.06;;;20.87;100.00
21644;BME280;10983;51.982;9.226;2022-07-23T08:45:15;100990.69;;;21.45;100.00
21644;BME280;10983;51.982;9.226;2022-07-23T08:47:44;101007.06;;;22.11;100.00
21644;BME280;10983;51.982;9.226;2022-07-23T08:50:20;100993.19;;;21.32;100.00
21644;BME280;10983;51.982;9.226;2022-07-23T08:52:49;101032.31;;;20.56;100.00
21644;BME280;10983;51.982;9.226;2022-07-23T08:55:20;101015.00;;;20.87;100.00
21644;BME280;10983;51.982;9.226;2022-07-23T08:57:50;101004.53;;;21.39;100.00
21644;BME280;10983;51.982;9.226;2022-07-23T09:00:19;100996.97;;;21.84;100.00
21644;BME280;10983;51.982;9.226;2022-07-23T09:02:48;100983.06;;;23.31;100.00
21644;BME280;10983;51.982;9.226;2022-07-23T09:05:18;100962.47;;;23.25;100.00
21644;BME280;10983;51.982;9.226;2022-07-23T09:08:07;100928.44;;;22.45;100.00
21644;BME280;10983;51.982;9.226;2022-07-23T09:10:49;100714.72;;;21.30;100.00
21644;BME280;10983;51.982;9.226;2022-07-23T09:13:39;100549.81;;;20.92;100.00
21644;BME280;10983;51.982;9.226;2022-07-23T09:16:11;100436.34;;;21.97;100.00
21644;BME280;10983;51.982;9.226;2022-07-23T09:18:43;99910.41;;;23.41;100.00
21644;BME280;10983;51.982;9.226;2022-07-23T09:21:16;99926.22;;;23.48;100.00
21644;BME280;10983;51.982;9.226;2022-07-23T09:23:48;99937.75;;;22.98;100.00
21644;BME280;10983;51.982;9.226;2022-07-23T09:26:31;99938.78;;;23.27;100.00
21644;BME280;10983;51.982;9.226;2022-07-23T09:29:04;99839.09;;;22.16;100.00
21644;BME280;10983;51.982;9.226;2022-07-23T09:31:42;99778.31;;;22.00;100.00
21644;BME280;10983;51.982;9.226;2022-07-23T09:34:12;99728.28;;;21.59;100.00
21644;BME280;10983;51.982;9.226;2022-07-23T09:36:40;99655.66;;;21.31;100.00
21644;BME280;10983;51.982;9.226;2022-07-23T09:39:10;99698.22;;;21.17;100.00
21644;BME280;10983;51.982;9.226;2022-07-23T09:41:40;99739.50;;;20.88;100.00
21644;BME280;10983;51.982;9.226;2022-07-23T09:44:09;99749.56;;;22.21;100.00
21644;BME280;10983;51.982;9.226;2022-07-23T09:46:38;99918.03;;;23.22;100.00
21644;BME280;10983;51.982;9.226;2022-07-23T09:49:18;99945.00;;;23.19;100.00
21644;BME280;10983;51.982;9.226;2022-07-23T09:51:51;100081.09;;;23.81;100.00
21644;BME280;10983;51.982;9.226;2022-07-23T09:54:26;100200.47;;;23.78;100.00
21644;BME280;10983;51.982;9.226;2022-07-23T09:56:55;100266.00;;;24.15;100.00
21644;BME280;10983;51.982;9.226;2022-07-23T09:59:25;100284.75;;;24.97;100.00
21644;BME280;10983;51.982;9.226;2022-07-23T10:01:54;100351.69;;;24.13;100.00
21644;BME280;10983;51.982;9.226;2022-07-23T10:04:23;100369.97;;;24.51;100.00
21644;BME280;10983;51.982;9.226;2022-07-23T10:06:53;100389.78;;;24.90;100.00
21644;BME280;10983;51.982;9.226;2022-07-23T10:09:25;100431.50;;;26.59;100.00
21644;BME280;10983;51.982;9.226;2022-07-23T10:11:55;100490.81;;;26.79;100.00
21644;BME280;10983;51.982;9.226;2022-07-23T10:14:26;100452.25;;;25.67;100.00
21644;BME280;10983;51.982;9.226;2022-07-23T10:16:57;100313.75;;;23.56;100.00
21644;BME280;10983;51.982;9.226;2022-07-23T10:19:25;100271.75;;;23.31;100.00
21644;BME280;10983;51.982;9.226;2022-07-23T10:21:55;100294.09;;;24.41;100.00
21644;BME280;10983;51.982;9.226;2022-07-23T10:24:39;100479.38;;;26.94;100.00
21644;BME280;10983;51.982;9.226;2022-07-23T10:27:41;100468.47;;;25.89;100.00
21644;BME280;10983;51.982;9.226;2022-07-23T10:30:16;100400.59;;;24.34;100.00
21644;BME280;10983;51.982;9.226;2022-07-23T10:32:53;100243.06;;;22.68;100.00
21644;BME280;10983;51.982;9.226;2022-07-23T10:35:29;100187.94;;;22.95;100.00
21644;BME280;10983;51.982;9.226;2022-07-23T10:38:06;100283.47;;;24.78;100.00
21644;BME280;10983;51.982;9.226;2022-07-23T10:40:36;100385.78;;;24.40;100.00
21644;BME280;10983;51.982;9.226;2022-07-23T10:43:13;100427.56;;;25.64;100.00
21644;BME280;10983;51.982;9.226;2022-07-23T10:45:47;100484.03;;;26.85;100.00
21644;BME280;10983;51.982;9.226;2022-07-23T10:48:17;100475.84;;;25.97;100.00
21644;BME280;10983;51.982;9.226;2022-07-23T10:51:05;100448.16;;;24.76;100.00
21644;BME280;10983;51.982;9.226;2022-07-23T10:53:55;100456.78;;;25.72;100.00
21644;BME280;10983;51.982;9.226;2022-07-23T10:59:30;100504.59;;;28.70;100.00
21644;BME280;10983;51.982;9.226;2022-07-23T11:02:22;100558.16;;;29.36;100.00
21644;BME280;10983;51.982;9.226;2022-07-23T11:04:52;100468.53;;;26.68;100.00
21644;BME280;10983;51.982;9.226;2022-07-23T11:07:20;100412.03;;;25.81;100.00
21644;BME280;10983;51.982;9.226;2022-07-23T11:09:48;100368.72;;;25.04;100.00
21644;BME280;10983;51.982;9.226;2022-07-23T11:12:33;100293.50;;;24.52;100.00
21644;BME280;10983;51.982;9.226;2022-07-23T11:15:05;100261.88;;;23.87;100.00
21644;BME280;10983;51.982;9.226;2022-07-23T11:17:34;100280.91;;;24.26;100.00
21644;BME280;10983;51.982;9.226;2022-07-23T11:20:20;100390.06;;;26.03;100.00
21644;BME280;10983;51.982;9.226;2022-07-23T11:22:50;100425.75;;;26.27;100.00
21644;BME280;10983;51.982;9.226;2022-07-23T11:25:34;100460.72;;;26.96;100.00
21644;BME280;10983;51.982;9.226;2022-07-23T11:28:10;100525.56;;;29.10;100.00
21644;BME280;10983;51.982;9.226;2022-07-23T11:30:41;100550.75;;;28.80;100.00
21644;BME280;10983;51.982;9.226;2022-07-23T11:33:17;100538.97;;;28.47;100.00
21644;BME280;10983;51.982;9.226;2022-07-23T11:35:46;100497.13;;;27.08;100.00
21644;BME280;10983;51.982;9.226;2022-07-23T11:38:16;100459.31;;;26.36;100.00
21644;BME280;10983;51.982;9.226;2022-07-23T11:40:48;100437.50;;;26.10;100.00
21644;BME280;10983;51.982;9.226;2022-07-23T11:43:17;100486.63;;;27.18;100.00
21644;BME280;10983;51.982;9.226;2022-07-23T11:45:49;100412.31;;;25.63;100.00
21644;BME280;10983;51.982;9.226;2022-07-23T11:48:17;100429.94;;;26.16;100.00
21644;BME280;10983;51.982;9.226;2022-07-23T11:50:45;100487.59;;;26.77;100.00
21644;BME280;10983;51.982;9.226;2022-07-23T11:53:13;100536.88;;;28.65;100.00
21644;BME280;10983;51.982;9.226;2022-07-23T11:55:41;100573.19;;;30.52;100.00
21644;BME280;10983;51.982;9.226;2022-07-23T11:58:08;100535.53;;;29.50;100.00
21644;BME280;10983;51.982;9.226;2022-07-23T12:00:40;100538.56;;;28.90;100.00
21644;BME280;10983;51.982;9.226;2022-07-23T12:03:09;100545.09;;;28.33;100.00
21644;BME280;10983;51.982;9.226;2022-07-23T12:05:38;100497.41;;;27.52;100.00
21644;BME280;10983;51.982;9.226;2022-07-23T12:08:07;100483.47;;;27.08;100.00
21644;BME280;10983;51.982;9.226;2022-07-23T12:10:36;100525.88;;;28.53;100.00
21644;BME280;10983;51.982;9.226;2022-07-23T12:13:07;100517.97;;;27.78;100.00
21644;BME280;10983;51.982;9.226;2022-07-23T12:15:38;100534.09;;;28.53;100.00
21644;BME280;10983;51.982;9.226;2022-07-23T12:18:07;100565.31;;;29.76;100.00
21644;BME280;10983;51.982;9.226;2022-07-23T12:20:38;100576.84;;;29.22;100.00
21644;BME280;10983;51.982;9.226;2022-07-23T12:23:07;100571.91;;;29.03;100.00
21644;BME280;10983;51.982;9.226;2022-07-23T12:25:38;100583.25;;;29.26;100.00
21644;BME280;10983;51.982;9.226;2022-07-23T12:28:09;100589.03;;;28.07;100.00
21644;BME280;10983;51.982;9.226;2022-07-23T12:30:39;100560.22;;;27.89;100.00
21644;BME280;10983;51.982;9.226;2022-07-23T12:33:09;100557.16;;;28.11;100.00
21644;BME280;10983;51.982;9.226;2022-07-23T12:35:39;100586.69;;;28.58;100.00
21644;BME280;10983;51.982;9.226;2022-07-23T12:38:10;100587.06;;;28.36;100.00
21644;BME280;10983;51.982;9.226;2022-07-23T12:40:43;100600.56;;;29.06;100.00
21644;BME280;10983;51.982;9.226;2022-07-23T12:43:18;100612.31;;;30.10;100.00
21644;BME280;10983;51.982;9.226;2022-07-23T12:45:47;100621.97;;;30.31;100.00
21644;BME280;10983;51.982;9.226;2022-07-23T12:48:17;100626.50;;;29.52;100.00
21644;BME280;10983;51.982;9.226;2022-07-23T12:50:53;100629.44;;;28.31;100.00
21644;BME280;10983;51.982;9.226;2022-07-23T12:53:23;100629.84;;;29.26;100.00
21644;BME280;10983;51.982;9.226;2022-07-23T12:55:57;100624.22;;;29.90;100.00
21644;BME280;10983;51.982;9.226;2022-07-23T12:58:44;100629.38;;;27.90;100.00